sensor_id;sensor_type;location;lat;lon;timestamp;P1;durP1;ratioP1;P2;durP2;ratioP2
69410;SDS011;56604;48.652;9.194;2023-05-01T00:01:04;18.50;;;12.00;;
69410;SDS011;56604;48.652;9.194;2023-05-01T00:03:30;24.10;;;15.20;;
69410;SDS011;56604;48.652;9.194;2023-05-01T00:05:59;10.17;;;8.50;;
69410;SDS011;56604;48.652;9.194;2023-05-01T00:08:26;7.40;;;6.17;;
69410;SDS011;56604;48.652;9.194;2023-05-01T00:10:52;7.40;;;5.73;;
69410;SDS011;56604;48.652;9.194;2023-05-01T00:13:17;7.20;;;6.30;;
69410;SDS011;56604;48.652;9.194;2023-05-01T00:15:46;6.73;;;6.03;;
69410;SDS011;56604;48.652;9.194;2023-05-01T00:18:12;6.97;;;6.00;;
69410;SDS011;56604;48.652;9.194;2023-05-01T00:20:37;6.73;;;5.90;;
69410;SDS011;56604;48.652;9.194;2023-05-01T00:23:03;7.90;;;4.80;;
69410;SDS011;56604;48.652;9.194;2023-05-01T00:25:28;6.33;;;5.67;;
69410;SDS011;56604;48.652;9.194;2023-05-01T00:27:55;5.97;;;5.47;;
69410;SDS011;56604;48.652;9.194;2023-05-01T00:30:20;11.03;;;5.73;;
69410;SDS011;56604;48.652;9.194;2023-05-01T00:32:46;5.83;;;5.33;;
69410;SDS011;56604;48.652;9.194;2023-05-01T00:35:11;5.80;;;5.20;;
69410;SDS011;56604;48.652;9.194;2023-05-01T00:37:37;8.50;;;5.70;;
69410;SDS011;56604;48.652;9.194;2023-05-01T00:40:03;7.70;;;5.47;;
69410;SDS011;56604;48.652;9.194;2023-05-01T00:42:32;6.30;;;5.70;;
69410;SDS011;56604;48.652;9.194;2023-05-01T00:44:59;5.43;;;5.03;;
69410;SDS011;56604;48.652;9.194;2023-05-01T00:47:24;7.30;;;5.80;;
69410;SDS011;56604;48.652;9.194;2023-05-01T00:49:49;14.90;;;5.87;;
69410;SDS011;56604;48.652;9.194;2023-05-01T00:52:16;7.07;;;5.67;;
69410;SDS011;56604;48.652;9.194;2023-05-01T00:54:42;5.83;;;5.23;;
69410;SDS011;56604;48.652;9.194;2023-05-01T00:57:07;6.90;;;5.50;;
69410;SDS011;56604;48.652;9.194;2023-05-01T00:59:33;6.43;;;5.83;;
69410;SDS011;56604;48.652;9.194;2023-05-01T01:01:58;12.40;;;6.03;;
69410;SDS011;56604;48.652;9.194;2023-05-01T01:04:24;7.70;;;5.70;;
69410;SDS011;56604;48.652;9.194;2023-05-01T01:06:55;5.67;;;5.17;;
69410;SDS011;56604;48.652;9.194;2023-05-01T01:09:31;6.50;;;5.70;;
69410;SDS011;56604;48.652;9.194;2023-05-01T01:22:37;7.00;;;6.30;;
69410;SDS011;56604;48.652;9.194;2023-05-01T01:36:52;8.30;;;6.00;;
69410;SDS011;56604;48.652;9.194;2023-05-01T01:42:20;6.77;;;5.27;;
69410;SDS011;56604;48.652;9.194;2023-05-01T01:44:58;11.40;;;6.17;;
69410;SDS011;56604;48.652;9.194;2023-05-01T01:47:28;6.70;;;5.60;;
69410;SDS011;56604;48.652;9.194;2023-05-01T01:49:56;6.87;;;5.40;;
69410;SDS011;56604;48.652;9.194;2023-05-01T01:52:23;13.57;;;6.00;;
69410;SDS011;56604;48.652;9.194;2023-05-01T01:54:53;6.30;;;5.70;;
69410;SDS011;56604;48.652;9.194;2023-05-01T01:57:22;6.27;;;5.67;;
69410;SDS011;56604;48.652;9.194;2023-05-01T01:59:49;5.77;;;5.17;;
69410;SDS011;56604;48.652;9.194;2023-05-01T02:02:16;7.10;;;5.97;;
69410;SDS011;56604;48.652;9.194;2023-05-01T02:04:44;5.60;;;5.10;;
69410;SDS011;56604;48.652;9.194;2023-05-01T02:07:10;7.43;;;6.20;;
69410;SDS011;56604;48.652;9.194;2023-05-01T02:09:38;5.67;;;5.27;;
69410;SDS011;56604;48.652;9.194;2023-05-01T02:12:06;7.90;;;6.20;;
69410;SDS011;56604;48.652;9.194;2023-05-01T02:14:33;8.57;;;6.70;;
69410;SDS011;56604;48.652;9.194;2023-05-01T02:16:59;8.57;;;5.90;;
69410;SDS011;56604;48.652;9.194;2023-05-01T02:19:26;10.60;;;6.17;;
69410;SDS011;56604;48.652;9.194;2023-05-01T02:21:52;6.90;;;6.20;;
69410;SDS011;56604;48.652;9.194;2023-05-01T02:24:21;5.63;;;5.10;;
69410;SDS011;56604;48.652;9.194;2023-05-01T02:26:50;6.07;;;5.57;;
69410;SDS011;56604;48.652;9.194;2023-05-01T02:29:19;7.80;;;5.90;;
69410;SDS011;56604;48.652;9.194;2023-05-01T02:31:44;6.63;;;6.03;;
69410;SDS011;56604;48.652;9.194;2023-05-01T02:34:10;9.43;;;6.57;;
69410;SDS011;56604;48.652;9.194;2023-05-01T02:36:36;6.97;;;6.27;;
69410;SDS011;56604;48.652;9.194;2023-05-01T02:39:02;9.23;;;6.17;;
69410;SDS011;56604;48.652;9.194;2023-05-01T02:41:27;7.13;;;6.43;;
69410;SDS011;56604;48.652;9.194;2023-05-01T02:43:55;7.97;;;5.83;;
69410;SDS011;56604;48.652;9.194;2023-05-01T02:46:25;6.80;;;5.60;;
69410;SDS011;56604;48.652;9.194;2023-05-01T02:48:52;6.60;;;5.90;;
69410;SDS011;56604;48.652;9.194;2023-05-01T02:51:19;6.00;;;5.40;;
69410;SDS011;56604;48.652;9.194;2023-05-01T02:53:46;7.80;;;6.20;;
69410;SDS011;56604;48.652;9.194;2023-05-01T02:56:11;9.37;;;6.23;;
69410;SDS011;56604;48.652;9.194;2023-05-01T02:58:37;8.10;;;5.83;;
69410;SDS011;56604;48.652;9.194;2023-05-01T03:01:03;7.50;;;5.67;;
69410;SDS011;56604;48.652;9.194;2023-05-01T03:03:29;6.60;;;5.73;;
69410;SDS011;56604;48.652;9.194;2023-05-01T03:05:54;6.60;;;5.97;;
69410;SDS011;56604;48.652;9.194;2023-05-01T03:08:21;6.30;;;5.70;;
69410;SDS011;56604;48.652;9.194;2023-05-01T03:10:46;9.03;;;5.67;;
69410;SDS011;56604;48.652;9.194;2023-05-01T03:13:12;6.03;;;5.43;;
69410;SDS011;56604;48.652;9.194;2023-05-01T03:15:37;5.97;;;5.37;;
69410;SDS011;56604;48.652;9.194;2023-05-01T03:18:03;11.43;;;7.10;;
69410;SDS011;56604;48.652;9.194;2023-05-01T03:20:29;11.83;;;5.63;;
69410;SDS011;56604;48.652;9.194;2023-05-01T03:22:55;7.10;;;5.30;;
69410;SDS011;56604;48.652;9.194;2023-05-01T03:25:21;6.73;;;5.63;;
69410;SDS011;56604;48.652;9.194;2023-05-01T03:27:46;6.00;;;5.13;;
69410;SDS011;56604;48.652;9.194;2023-05-01T03:30:13;6.53;;;5.93;;
69410;SDS011;56604;48.652;9.194;2023-05-01T03:32:38;7.10;;;5.50;;
69410;SDS011;56604;48.652;9.194;2023-05-01T03:35:04;12.50;;;5.67;;
69410;SDS011;56604;48.652;9.194;2023-05-01T03:37:30;6.47;;;5.37;;
69410;SDS011;56604;48.652;9.194;2023-05-01T03:39:55;6.43;;;5.83;;
69410;SDS011;56604;48.652;9.194;2023-05-01T03:42:20;6.00;;;5.40;;
69410;SDS011;56604;48.652;9.194;2023-05-01T03:44:46;8.30;;;5.33;;
69410;SDS011;56604;48.652;9.194;2023-05-01T03:47:11;6.47;;;5.83;;
69410;SDS011;56604;48.652;9.194;2023-05-01T03:49:37;7.43;;;6.07;;
69410;SDS011;56604;48.652;9.194;2023-05-01T03:52:02;7.40;;;5.83;;
69410;SDS011;56604;48.652;9.194;2023-05-01T03:54:28;5.13;;;4.73;;
69410;SDS011;56604;48.652;9.194;2023-05-01T03:56:53;7.10;;;6.40;;
69410;SDS011;56604;48.652;9.194;2023-05-01T03:59:18;6.70;;;6.03;;
69410;SDS011;56604;48.652;9.194;2023-05-01T04:01:43;7.70;;;5.30;;
69410;SDS011;56604;48.652;9.194;2023-05-01T04:04:09;6.10;;;5.50;;
69410;SDS011;56604;48.652;9.194;2023-05-01T04:06:35;6.47;;;5.87;;
69410;SDS011;56604;48.652;9.194;2023-05-01T04:09:01;12.60;;;5.87;;
69410;SDS011;56604;48.652;9.194;2023-05-01T04:11:26;7.90;;;5.23;;
69410;SDS011;56604;48.652;9.194;2023-05-01T04:13:51;7.90;;;6.00;;
69410;SDS011;56604;48.652;9.194;2023-05-01T04:16:17;15.80;;;5.70;;
69410;SDS011;56604;48.652;9.194;2023-05-01T04:18:42;8.20;;;6.40;;
69410;SDS011;56604;48.652;9.194;2023-05-01T04:21:07;7.80;;;6.37;;
69410;SDS011;56604;48.652;9.194;2023-05-01T04:23:33;6.20;;;5.70;;
69410;SDS011;56604;48.652;9.194;2023-05-01T04:25:58;7.23;;;6.53;;
69410;SDS011;56604;48.652;9.194;2023-05-01T04:28:23;6.80;;;6.20;;
69410;SDS011;56604;48.652;9.194;2023-05-01T04:30:49;7.50;;;6.27;;
69410;SDS011;56604;48.652;9.194;2023-05-01T04:33:14;7.13;;;5.97;;
69410;SDS011;56604;48.652;9.194;2023-05-01T04:35:40;6.70;;;6.00;;
69410;SDS011;56604;48.652;9.194;2023-05-01T04:38:06;8.73;;;6.07;;
69410;SDS011;56604;48.652;9.194;2023-05-01T04:40:32;7.53;;;5.60;;
69410;SDS011;56604;48.652;9.194;2023-05-01T04:42:58;8.20;;;6.70;;
69410;SDS011;56604;48.652;9.194;2023-05-01T04:45:23;6.70;;;6.03;;
69410;SDS011;56604;48.652;9.194;2023-05-01T04:47:49;7.13;;;6.17;;
69410;SDS011;56604;48.652;9.194;2023-05-01T04:50:14;7.37;;;6.53;;
69410;SDS011;56604;48.652;9.194;2023-05-01T04:52:40;6.97;;;6.27;;
69410;SDS011;56604;48.652;9.194;2023-05-01T04:55:05;8.00;;;7.20;;
69410;SDS011;56604;48.652;9.194;2023-05-01T04:57:31;8.47;;;7.50;;
69410;SDS011;56604;48.652;9.194;2023-05-01T04:59:56;8.47;;;7.20;;
69410;SDS011;56604;48.652;9.194;2023-05-01T05:02:22;7.77;;;6.50;;
69410;SDS011;56604;48.652;9.194;2023-05-01T05:04:47;10.83;;;6.10;;
69410;SDS011;56604;48.652;9.194;2023-05-01T05:07:13;7.90;;;6.30;;
69410;SDS011;56604;48.652;9.194;2023-05-01T05:09:38;8.53;;;6.83;;
69410;SDS011;56604;48.652;9.194;2023-05-01T05:12:03;8.60;;;6.77;;
69410;SDS011;56604;48.652;9.194;2023-05-01T05:14:29;10.27;;;6.87;;
69410;SDS011;56604;48.652;9.194;2023-05-01T05:16:55;7.30;;;6.60;;
69410;SDS011;56604;48.652;9.194;2023-05-01T05:19:20;7.13;;;6.47;;
69410;SDS011;56604;48.652;9.194;2023-05-01T05:21:45;8.90;;;7.53;;
69410;SDS011;56604;48.652;9.194;2023-05-01T05:24:11;9.13;;;7.00;;
69410;SDS011;56604;48.652;9.194;2023-05-01T05:26:37;9.13;;;7.10;;
69410;SDS011;56604;48.652;9.194;2023-05-01T05:29:02;8.50;;;7.03;;
69410;SDS011;56604;48.652;9.194;2023-05-01T05:31:28;16.13;;;7.50;;
69410;SDS011;56604;48.652;9.194;2023-05-01T05:33:53;7.37;;;6.50;;
69410;SDS011;56604;48.652;9.194;2023-05-01T05:36:18;7.97;;;6.93;;
69410;SDS011;56604;48.652;9.194;2023-05-01T05:38:44;8.80;;;7.60;;
69410;SDS011;56604;48.652;9.194;2023-05-01T05:41:09;12.00;;;7.40;;
69410;SDS011;56604;48.652;9.194;2023-05-01T05:43:35;7.63;;;6.70;;
69410;SDS011;56604;48.652;9.194;2023-05-01T05:46:01;9.20;;;7.07;;
69410;SDS011;56604;48.652;9.194;2023-05-01T05:48:26;11.03;;;8.60;;
69410;SDS011;56604;48.652;9.194;2023-05-01T05:50:51;13.97;;;8.33;;
69410;SDS011;56604;48.652;9.194;2023-05-01T05:53:19;11.60;;;7.47;;
69410;SDS011;56604;48.652;9.194;2023-05-01T05:55:45;8.50;;;7.60;;
69410;SDS011;56604;48.652;9.194;2023-05-01T05:58:11;7.67;;;6.87;;
69410;SDS011;56604;48.652;9.194;2023-05-01T06:00:38;10.47;;;7.00;;
69410;SDS011;56604;48.652;9.194;2023-05-01T06:03:03;9.03;;;7.10;;
69410;SDS011;56604;48.652;9.194;2023-05-01T06:05:29;10.50;;;7.67;;
69410;SDS011;56604;48.652;9.194;2023-05-01T06:07:54;8.93;;;7.40;;
69410;SDS011;56604;48.652;9.194;2023-05-01T06:10:20;10.20;;;7.60;;
69410;SDS011;56604;48.652;9.194;2023-05-01T06:12:45;9.47;;;7.27;;
69410;SDS011;56604;48.652;9.194;2023-05-01T06:15:13;10.63;;;7.73;;
69410;SDS011;56604;48.652;9.194;2023-05-01T06:17:44;7.50;;;6.77;;
69410;SDS011;56604;48.652;9.194;2023-05-01T06:20:15;9.00;;;7.53;;
69410;SDS011;56604;48.652;9.194;2023-05-01T06:22:45;10.10;;;8.00;;
69410;SDS011;56604;48.652;9.194;2023-05-01T06:25:13;9.10;;;7.80;;
69410;SDS011;56604;48.652;9.194;2023-05-01T06:27:44;9.60;;;8.00;;
69410;SDS011;56604;48.652;9.194;2023-05-01T06:30:14;8.20;;;7.50;;
69410;SDS011;56604;48.652;9.194;2023-05-01T06:32:47;8.37;;;7.47;;
69410;SDS011;56604;48.652;9.194;2023-05-01T06:35:14;8.93;;;8.03;;
69410;SDS011;56604;48.652;9.194;2023-05-01T06:37:40;9.80;;;7.50;;
69410;SDS011;56604;48.652;9.194;2023-05-01T06:40:08;13.13;;;7.90;;
69410;SDS011;56604;48.652;9.194;2023-05-01T06:42:38;8.77;;;7.30;;
69410;SDS011;56604;48.652;9.194;2023-05-01T06:45:04;8.77;;;7.40;;
69410;SDS011;56604;48.652;9.194;2023-05-01T06:47:30;11.10;;;7.50;;
69410;SDS011;56604;48.652;9.194;2023-05-01T06:49:56;8.60;;;7.70;;
69410;SDS011;56604;48.652;9.194;2023-05-01T06:52:21;8.03;;;7.30;;
69410;SDS011;56604;48.652;9.194;2023-05-01T06:54:46;10.37;;;8.90;;
69410;SDS011;56604;48.652;9.194;2023-05-01T06:57:12;9.30;;;7.80;;
69410;SDS011;56604;48.652;9.194;2023-05-01T06:59:37;12.70;;;8.47;;
69410;SDS011;56604;48.652;9.194;2023-05-01T07:02:02;9.70;;;7.70;;
69410;SDS011;56604;48.652;9.194;2023-05-01T07:04:27;9.00;;;8.07;;
69410;SDS011;56604;48.652;9.194;2023-05-01T07:06:53;8.13;;;7.33;;
69410;SDS011;56604;48.652;9.194;2023-05-01T07:09:18;7.93;;;7.13;;
69410;SDS011;56604;48.652;9.194;2023-05-01T07:11:43;10.53;;;7.50;;
69410;SDS011;56604;48.652;9.194;2023-05-01T07:14:09;8.23;;;7.53;;
69410;SDS011;56604;48.652;9.194;2023-05-01T07:16:35;8.40;;;7.63;;
69410;SDS011;56604;48.652;9.194;2023-05-01T07:19:00;8.93;;;7.40;;
69410;SDS011;56604;48.652;9.194;2023-05-01T07:21:25;11.43;;;7.60;;
69410;SDS011;56604;48.652;9.194;2023-05-01T07:23:50;10.83;;;7.17;;
69410;SDS011;56604;48.652;9.194;2023-05-01T07:26:16;13.70;;;8.23;;
69410;SDS011;56604;48.652;9.194;2023-05-01T07:28:41;12.20;;;7.40;;
69410;SDS011;56604;48.652;9.194;2023-05-01T07:31:10;7.67;;;6.97;;
69410;SDS011;56604;48.652;9.194;2023-05-01T07:33:36;8.20;;;7.10;;
69410;SDS011;56604;48.652;9.194;2023-05-01T07:36:01;8.97;;;6.77;;
69410;SDS011;56604;48.652;9.194;2023-05-01T07:38:28;9.20;;;7.10;;
69410;SDS011;56604;48.652;9.194;2023-05-01T07:40:54;11.40;;;7.07;;
69410;SDS011;56604;48.652;9.194;2023-05-01T07:43:20;8.40;;;7.33;;
69410;SDS011;56604;48.652;9.194;2023-05-01T07:45:53;8.00;;;7.20;;
69410;SDS011;56604;48.652;9.194;2023-05-01T07:48:22;8.63;;;7.57;;
69410;SDS011;56604;48.652;9.194;2023-05-01T07:50:49;7.83;;;6.90;;
69410;SDS011;56604;48.652;9.194;2023-05-01T07:53:14;7.20;;;6.60;;
69410;SDS011;56604;48.652;9.194;2023-05-01T07:55:39;9.30;;;6.97;;
69410;SDS011;56604;48.652;9.194;2023-05-01T07:58:05;10.57;;;7.57;;
69410;SDS011;56604;48.652;9.194;2023-05-01T08:00:31;8.63;;;7.10;;
69410;SDS011;56604;48.652;9.194;2023-05-01T08:02:57;7.47;;;6.67;;
69410;SDS011;56604;48.652;9.194;2023-05-01T08:05:22;7.90;;;7.20;;
69410;SDS011;56604;48.652;9.194;2023-05-01T08:07:47;8.30;;;7.50;;
69410;SDS011;56604;48.652;9.194;2023-05-01T08:10:13;9.27;;;7.30;;
69410;SDS011;56604;48.652;9.194;2023-05-01T08:12:38;9.40;;;7.20;;
69410;SDS011;56604;48.652;9.194;2023-05-01T08:15:05;13.67;;;6.13;;
69410;SDS011;56604;48.652;9.194;2023-05-01T08:17:30;7.83;;;7.13;;
69410;SDS011;56604;48.652;9.194;2023-05-01T08:19:56;11.73;;;7.27;;
69410;SDS011;56604;48.652;9.194;2023-05-01T08:22:22;6.70;;;6.10;;
69410;SDS011;56604;48.652;9.194;2023-05-01T08:24:48;7.03;;;6.37;;
69410;SDS011;56604;48.652;9.194;2023-05-01T08:27:14;10.03;;;6.40;;
69410;SDS011;56604;48.652;9.194;2023-05-01T08:29:40;7.83;;;6.53;;
69410;SDS011;56604;48.652;9.194;2023-05-01T08:32:06;7.60;;;6.77;;
69410;SDS011;56604;48.652;9.194;2023-05-01T08:34:31;7.23;;;6.53;;
69410;SDS011;56604;48.652;9.194;2023-05-01T08:36:58;7.03;;;6.43;;
69410;SDS011;56604;48.652;9.194;2023-05-01T08:39:23;7.40;;;6.50;;
69410;SDS011;56604;48.652;9.194;2023-05-01T08:41:49;7.77;;;6.03;;
69410;SDS011;56604;48.652;9.194;2023-05-01T08:44:14;8.53;;;6.00;;
69410;SDS011;56604;48.652;9.194;2023-05-01T08:47:03;6.73;;;6.13;;
69410;SDS011;56604;48.652;9.194;2023-05-01T08:49:36;11.10;;;6.90;;
69410;SDS011;56604;48.652;9.194;2023-05-01T08:52:03;6.10;;;5.60;;
69410;SDS011;56604;48.652;9.194;2023-05-01T08:54:30;6.33;;;5.83;;
69410;SDS011;56604;48.652;9.194;2023-05-01T08:57:00;7.43;;;5.77;;
69410;SDS011;56604;48.652;9.194;2023-05-01T08:59:27;8.17;;;5.87;;
69410;SDS011;56604;48.652;9.194;2023-05-01T09:01:55;9.77;;;5.63;;
69410;SDS011;56604;48.652;9.194;2023-05-01T09:04:20;6.30;;;5.70;;
69410;SDS011;56604;48.652;9.194;2023-05-01T09:06:46;5.90;;;5.40;;
69410;SDS011;56604;48.652;9.194;2023-05-01T09:09:12;6.30;;;5.30;;
69410;SDS011;56604;48.652;9.194;2023-05-01T09:11:37;6.30;;;5.70;;
69410;SDS011;56604;48.652;9.194;2023-05-01T09:14:03;6.47;;;5.43;;
69410;SDS011;56604;48.652;9.194;2023-05-01T09:16:29;11.27;;;5.83;;
69410;SDS011;56604;48.652;9.194;2023-05-01T09:18:55;6.57;;;5.90;;
69410;SDS011;56604;48.652;9.194;2023-05-01T09:21:21;7.23;;;6.40;;
69410;SDS011;56604;48.652;9.194;2023-05-01T09:23:51;7.10;;;5.73;;
69410;SDS011;56604;48.652;9.194;2023-05-01T09:26:17;7.67;;;5.60;;
69410;SDS011;56604;48.652;9.194;2023-05-01T09:28:44;6.53;;;5.90;;
69410;SDS011;56604;48.652;9.194;2023-05-01T09:31:20;6.23;;;5.60;;
69410;SDS011;56604;48.652;9.194;2023-05-01T09:33:59;6.37;;;5.77;;
69410;SDS011;56604;48.652;9.194;2023-05-01T09:36:26;6.00;;;5.50;;
69410;SDS011;56604;48.652;9.194;2023-05-01T09:38:53;7.20;;;5.50;;
69410;SDS011;56604;48.652;9.194;2023-05-01T09:41:19;6.10;;;5.50;;
69410;SDS011;56604;48.652;9.194;2023-05-01T09:43:52;7.43;;;5.47;;
69410;SDS011;56604;48.652;9.194;2023-05-01T09:46:18;6.53;;;4.43;;
69410;SDS011;56604;48.652;9.194;2023-05-01T09:48:51;6.13;;;5.30;;
69410;SDS011;56604;48.652;9.194;2023-05-01T09:53:56;6.93;;;5.17;;
69410;SDS011;56604;48.652;9.194;2023-05-01T09:56:24;5.80;;;5.30;;
69410;SDS011;56604;48.652;9.194;2023-05-01T09:58:50;7.33;;;5.90;;
69410;SDS011;56604;48.652;9.194;2023-05-01T10:01:17;9.40;;;5.10;;
69410;SDS011;56604;48.652;9.194;2023-05-01T10:03:43;5.03;;;4.63;;
69410;SDS011;56604;48.652;9.194;2023-05-01T10:06:09;4.70;;;4.30;;
69410;SDS011;56604;48.652;9.194;2023-05-01T10:08:48;4.43;;;4.17;;
69410;SDS011;56604;48.652;9.194;2023-05-01T10:11:15;5.37;;;4.90;;
69410;SDS011;56604;48.652;9.194;2023-05-01T10:13:40;5.90;;;5.30;;
69410;SDS011;56604;48.652;9.194;2023-05-01T10:16:06;4.90;;;4.37;;
69410;SDS011;56604;48.652;9.194;2023-05-01T10:18:40;6.40;;;4.90;;
69410;SDS011;56604;48.652;9.194;2023-05-01T10:21:06;5.23;;;4.73;;
69410;SDS011;56604;48.652;9.194;2023-05-01T10:23:31;13.23;;;4.93;;
69410;SDS011;56604;48.652;9.194;2023-05-01T10:25:57;5.27;;;4.77;;
69410;SDS011;56604;48.652;9.194;2023-05-01T10:28:25;5.37;;;4.67;;
69410;SDS011;56604;48.652;9.194;2023-05-01T10:30:52;7.10;;;5.17;;
69410;SDS011;56604;48.652;9.194;2023-05-01T10:33:19;8.20;;;4.77;;
69410;SDS011;56604;48.652;9.194;2023-05-01T10:35:53;11.83;;;4.90;;
69410;SDS011;56604;48.652;9.194;2023-05-01T10:38:21;8.17;;;4.90;;
69410;SDS011;56604;48.652;9.194;2023-05-01T10:40:53;6.60;;;4.73;;
69410;SDS011;56604;48.652;9.194;2023-05-01T10:46:25;6.63;;;5.23;;
69410;SDS011;56604;48.652;9.194;2023-05-01T10:51:08;8.53;;;5.50;;
69410;SDS011;56604;48.652;9.194;2023-05-01T10:53:47;5.30;;;4.83;;
69410;SDS011;56604;48.652;9.194;2023-05-01T11:07:12;5.20;;;4.63;;
69410;SDS011;56604;48.652;9.194;2023-05-01T11:09:42;5.30;;;4.80;;
69410;SDS011;56604;48.652;9.194;2023-05-01T11:12:46;4.87;;;4.47;;
69410;SDS011;56604;48.652;9.194;2023-05-01T11:15:09;5.17;;;4.63;;
69410;SDS011;56604;48.652;9.194;2023-05-01T11:22:35;8.50;;;4.07;;
69410;SDS011;56604;48.652;9.194;2023-05-01T11:25:01;5.27;;;4.77;;
69410;SDS011;56604;48.652;9.194;2023-05-01T11:27:28;8.60;;;4.87;;
69410;SDS011;56604;48.652;9.194;2023-05-01T11:29:54;5.37;;;4.87;;
69410;SDS011;56604;48.652;9.194;2023-05-01T11:32:23;4.80;;;4.30;;
69410;SDS011;56604;48.652;9.194;2023-05-01T11:34:51;5.50;;;5.00;;
69410;SDS011;56604;48.652;9.194;2023-05-01T11:37:16;10.90;;;4.60;;
69410;SDS011;56604;48.652;9.194;2023-05-01T11:39:47;5.50;;;5.00;;
69410;SDS011;56604;48.652;9.194;2023-05-01T11:42:13;5.60;;;4.93;;
69410;SDS011;56604;48.652;9.194;2023-05-01T11:44:38;8.13;;;5.23;;
69410;SDS011;56604;48.652;9.194;2023-05-01T11:47:03;5.13;;;4.73;;
69410;SDS011;56604;48.652;9.194;2023-05-01T11:49:31;6.10;;;5.50;;
69410;SDS011;56604;48.652;9.194;2023-05-01T11:51:56;6.30;;;5.70;;
69410;SDS011;56604;48.652;9.194;2023-05-01T11:54:22;5.57;;;5.17;;
69410;SDS011;56604;48.652;9.194;2023-05-01T11:56:56;6.90;;;6.20;;
69410;SDS011;56604;48.652;9.194;2023-05-01T11:59:23;16.37;;;5.70;;
69410;SDS011;56604;48.652;9.194;2023-05-01T12:01:50;5.60;;;5.20;;
69410;SDS011;56604;48.652;9.194;2023-05-01T12:04:22;7.63;;;5.63;;
69410;SDS011;56604;48.652;9.194;2023-05-01T12:06:49;7.50;;;6.80;;
69410;SDS011;56604;48.652;9.194;2023-05-01T12:09:15;7.30;;;6.40;;
69410;SDS011;56604;48.652;9.194;2023-05-01T12:11:43;7.87;;;5.40;;
69410;SDS011;56604;48.652;9.194;2023-05-01T12:14:10;6.00;;;5.50;;
69410;SDS011;56604;48.652;9.194;2023-05-01T12:16:36;6.13;;;5.40;;
69410;SDS011;56604;48.652;9.194;2023-05-01T12:19:04;7.80;;;5.23;;
69410;SDS011;56604;48.652;9.194;2023-05-01T12:21:30;6.10;;;5.50;;
69410;SDS011;56604;48.652;9.194;2023-05-01T12:23:55;5.73;;;5.17;;
69410;SDS011;56604;48.652;9.194;2023-05-01T12:26:23;7.93;;;5.67;;
69410;SDS011;56604;48.652;9.194;2023-05-01T12:28:59;9.97;;;5.73;;
69410;SDS011;56604;48.652;9.194;2023-05-01T12:31:28;5.53;;;5.03;;
69410;SDS011;56604;48.652;9.194;2023-05-01T12:33:54;6.83;;;6.20;;
69410;SDS011;56604;48.652;9.194;2023-05-01T12:36:21;5.30;;;4.90;;
69410;SDS011;56604;48.652;9.194;2023-05-01T12:38:58;6.93;;;5.57;;
69410;SDS011;56604;48.652;9.194;2023-05-01T12:44:16;5.80;;;5.00;;
69410;SDS011;56604;48.652;9.194;2023-05-01T12:46:42;6.60;;;5.77;;
69410;SDS011;56604;48.652;9.194;2023-05-01T12:49:08;6.93;;;6.20;;
69410;SDS011;56604;48.652;9.194;2023-05-01T12:51:33;6.70;;;6.00;;
69410;SDS011;56604;48.652;9.194;2023-05-01T12:53:59;6.17;;;5.63;;
69410;SDS011;56604;48.652;9.194;2023-05-01T12:56:24;7.83;;;7.03;;
69410;SDS011;56604;48.652;9.194;2023-05-01T12:58:50;8.40;;;7.60;;
69410;SDS011;56604;48.652;9.194;2023-05-01T13:01:24;11.53;;;9.00;;
69410;SDS011;56604;48.652;9.194;2023-05-01T13:03:51;10.83;;;9.17;;
69410;SDS011;56604;48.652;9.194;2023-05-01T13:06:17;13.60;;;11.00;;
69410;SDS011;56604;48.652;9.194;2023-05-01T13:08:42;11.87;;;9.90;;
69410;SDS011;56604;48.652;9.194;2023-05-01T13:11:12;10.23;;;9.23;;
69410;SDS011;56604;48.652;9.194;2023-05-01T13:13:40;10.20;;;9.20;;
69410;SDS011;56604;48.652;9.194;2023-05-01T13:16:13;11.43;;;8.60;;
69410;SDS011;56604;48.652;9.194;2023-05-01T13:18:43;12.10;;;8.57;;
69410;SDS011;56604;48.652;9.194;2023-05-01T13:21:19;10.17;;;9.17;;
69410;SDS011;56604;48.652;9.194;2023-05-01T13:26:23;11.33;;;10.07;;
69410;SDS011;56604;48.652;9.194;2023-05-01T13:28:57;17.30;;;11.60;;
69410;SDS011;56604;48.652;9.194;2023-05-01T13:31:23;18.17;;;12.20;;
69410;SDS011;56604;48.652;9.194;2023-05-01T13:33:50;11.80;;;10.60;;
69410;SDS011;56604;48.652;9.194;2023-05-01T13:36:17;14.83;;;11.60;;
69410;SDS011;56604;48.652;9.194;2023-05-01T13:38:47;17.23;;;11.20;;
69410;SDS011;56604;48.652;9.194;2023-05-01T13:41:15;15.17;;;11.73;;
69410;SDS011;56604;48.652;9.194;2023-05-01T13:43:45;15.80;;;14.03;;
69410;SDS011;56604;48.652;9.194;2023-05-01T13:46:16;18.57;;;12.57;;
69410;SDS011;56604;48.652;9.194;2023-05-01T13:48:43;15.43;;;11.87;;
69410;SDS011;56604;48.652;9.194;2023-05-01T13:51:10;15.83;;;12.63;;
69410;SDS011;56604;48.652;9.194;2023-05-01T13:53:37;14.60;;;11.43;;
69410;SDS011;56604;48.652;9.194;2023-05-01T13:56:04;15.00;;;10.67;;
69410;SDS011;56604;48.652;9.194;2023-05-01T13:58:33;12.60;;;10.10;;
69410;SDS011;56604;48.652;9.194;2023-05-01T14:00:59;15.03;;;11.30;;
69410;SDS011;56604;48.652;9.194;2023-05-01T14:03:25;13.40;;;11.23;;
69410;SDS011;56604;48.652;9.194;2023-05-01T14:05:51;16.00;;;11.87;;
69410;SDS011;56604;48.652;9.194;2023-05-01T14:08:18;22.07;;;11.60;;
69410;SDS011;56604;48.652;9.194;2023-05-01T14:10:45;18.90;;;12.47;;
69410;SDS011;56604;48.652;9.194;2023-05-01T14:13:10;17.63;;;14.13;;
69410;SDS011;56604;48.652;9.194;2023-05-01T14:15:38;20.20;;;14.13;;
69410;SDS011;56604;48.652;9.194;2023-05-01T14:18:07;16.80;;;13.90;;
69410;SDS011;56604;48.652;9.194;2023-05-01T14:20:35;19.07;;;13.83;;
69410;SDS011;56604;48.652;9.194;2023-05-01T14:23:00;18.30;;;13.97;;
69410;SDS011;56604;48.652;9.194;2023-05-01T14:25:29;20.67;;;14.00;;
69410;SDS011;56604;48.652;9.194;2023-05-01T14:27:58;21.40;;;14.73;;
69410;SDS011;56604;48.652;9.194;2023-05-01T14:30:31;16.50;;;12.67;;
69410;SDS011;56604;48.652;9.194;2023-05-01T14:33:01;19.43;;;14.40;;
69410;SDS011;56604;48.652;9.194;2023-05-01T14:35:27;24.47;;;15.00;;
69410;SDS011;56604;48.652;9.194;2023-05-01T14:37:53;17.43;;;14.30;;
69410;SDS011;56604;48.652;9.194;2023-05-01T14:40:22;27.70;;;14.10;;
69410;SDS011;56604;48.652;9.194;2023-05-01T14:42:53;21.53;;;14.97;;
69410;SDS011;56604;48.652;9.194;2023-05-01T14:45:21;23.60;;;14.70;;
69410;SDS011;56604;48.652;9.194;2023-05-01T14:47:47;18.00;;;13.00;;
69410;SDS011;56604;48.652;9.194;2023-05-01T14:50:20;18.00;;;14.50;;
69410;SDS011;56604;48.652;9.194;2023-05-01T14:52:51;17.23;;;13.93;;
69410;SDS011;56604;48.652;9.194;2023-05-01T14:55:18;22.50;;;14.20;;
69410;SDS011;56604;48.652;9.194;2023-05-01T14:57:49;16.70;;;13.70;;
69410;SDS011;56604;48.652;9.194;2023-05-01T15:00:14;15.90;;;14.20;;
69410;SDS011;56604;48.652;9.194;2023-05-01T15:02:40;15.70;;;13.40;;
69410;SDS011;56604;48.652;9.194;2023-05-01T15:05:05;19.93;;;14.30;;
69410;SDS011;56604;48.652;9.194;2023-05-01T15:07:31;17.50;;;14.17;;
69410;SDS011;56604;48.652;9.194;2023-05-01T15:09:56;18.97;;;15.57;;
69410;SDS011;56604;48.652;9.194;2023-05-01T15:12:22;21.50;;;16.60;;
69410;SDS011;56604;48.652;9.194;2023-05-01T15:14:47;19.60;;;15.80;;
69410;SDS011;56604;48.652;9.194;2023-05-01T15:17:13;23.17;;;16.50;;
69410;SDS011;56604;48.652;9.194;2023-05-01T15:19:38;22.73;;;15.50;;
69410;SDS011;56604;48.652;9.194;2023-05-01T15:22:03;19.50;;;15.47;;
69410;SDS011;56604;48.652;9.194;2023-05-01T15:24:29;16.87;;;12.77;;
69410;SDS011;56604;48.652;9.194;2023-05-01T15:26:55;14.30;;;11.50;;
69410;SDS011;56604;48.652;9.194;2023-05-01T15:29:20;19.43;;;11.33;;
69410;SDS011;56604;48.652;9.194;2023-05-01T15:31:45;10.43;;;9.27;;
69410;SDS011;56604;48.652;9.194;2023-05-01T15:34:11;15.03;;;11.50;;